sensor_id;sensor_type;location;lat;lon;timestamp;pressure;altitude;pressure_sealevel;temperature;humidity
61761;BME280;47664;51.660;-0.100;2022-11-03T00:02:37;99939.43;;;10.37;75.48
61761;BME280;47664;51.660;-0.100;2022-11-03T00:05:14;99941.69;;;10.63;75.10
61761;BME280;47664;51.660;-0.100;2022-11-03T00:07:51;99944.88;;;10.28;74.97
61761;BME280;47664;51.660;-0.100;2022-11-03T00:10:29;99952.00;;;10.65;74.73
61761;BME280;47664;51.660;-0.100;2022-11-03T00:13:06;99954.06;;;10.39;74.53
61761;BME280;47664;51.660;-0.100;2022-11-03T00:15:52;99955.55;;;10.79;74.58
61761;BME280;47664;51.660;-0.100;2022-11-03T00:18:29;99960.32;;;11.13;73.54
61761;BME280;47664;51.660;-0.100;2022-11-03T00:21:09;99968.59;;;11.24;73.65
61761;BME280;47664;51.660;-0.100;2022-11-03T00:23:48;99967.93;;;11.16;72.66
61761;BME280;47664;51.660;-0.100;2022-11-03T00:26:27;99968.81;;;10.68;72.87
61761;BME280;47664;51.660;-0.100;2022-11-03T00:29:06;99967.98;;;11.05;72.91
61761;BME280;47664;51.660;-0.100;2022-11-03T00:31:45;99961.25;;;11.02;73.38
61761;BME280;47664;51.660;-0.100;2022-11-03T00:34:22;99959.47;;;11.10;72.81
61761;BME280;47664;51.660;-0.100;2022-11-03T00:37:00;99963.51;;;11.05;73.67
61761;BME280;47664;51.660;-0.100;2022-11-03T00:39:37;99955.00;;;11.46;72.63
61761;BME280;47664;51.660;-0.100;2022-11-03T00:42:14;99967.89;;;11.26;72.14
61761;BME280;47664;51.660;-0.100;2022-11-03T00:44:51;99969.23;;;11.76;72.42
61761;BME280;47664;51.660;-0.100;2022-11-03T00:47:28;99970.06;;;11.48;71.55
61761;BME280;47664;51.660;-0.100;2022-11-03T00:50:06;99964.81;;;11.97;70.99
61761;BME280;47664;51.660;-0.100;2022-11-03T00:52:43;99969.30;;;11.85;70.71
61761;BME280;47664;51.660;-0.100;2022-11-03T00:55:20;99972.46;;;11.55;72.09
61761;BME280;47664;51.660;-0.100;2022-11-03T00:57:57;99971.56;;;11.83;70.98
61761;BME280;47664;51.660;-0.100;2022-11-03T01:00:34;99973.12;;;11.51;71.49
61761;BME280;47664;51.660;-0.100;2022-11-03T01:03:11;99954.49;;;11.49;71.81
61761;BME280;47664;51.660;-0.100;2022-11-03T01:05:49;99943.82;;;11.32;72.17
61761;BME280;47664;51.660;-0.100;2022-11-03T01:08:30;99938.92;;;11.40;71.62
61761;BME280;47664;51.660;-0.100;2022-11-03T01:11:11;99937.30;;;11.69;72.67
61761;BME280;47664;51.660;-0.100;2022-11-03T01:13:47;99927.98;;;11.37;73.15
61761;BME280;47664;51.660;-0.100;2022-11-03T01:16:25;99922.89;;;11.52;73.21
61761;BME280;47664;51.660;-0.100;2022-11-03T01:19:03;99919.64;;;11.57;73.31
61761;BME280;47664;51.660;-0.100;2022-11-03T01:21:40;99925.59;;;11.79;72.42
61761;BME280;47664;51.660;-0.100;2022-11-03T01:24:17;99929.56;;;11.81;72.05
61761;BME280;47664;51.660;-0.100;2022-11-03T01:26:54;99920.09;;;11.31;72.65
61761;BME280;47664;51.660;-0.100;2022-11-03T01:29:31;99921.88;;;10.80;73.27
61761;BME280;47664;51.660;-0.100;2022-11-03T01:32:08;99916.67;;;11.28;72.20
61761;BME280;47664;51.660;-0.100;2022-11-03T01:34:45;99911.07;;;11.35;71.55
61761;BME280;47664;51.660;-0.100;2022-11-03T01:37:23;99900.53;;;11.41;71.78
61761;BME280;47664;51.660;-0.100;2022-11-03T01:40:01;99907.45;;;11.69;71.41
61761;BME280;47664;51.660;-0.100;2022-11-03T01:42:38;99900.28;;;11.07;72.47
61761;BME280;47664;51.660;-0.100;2022-11-03T01:45:15;99926.63;;;11.46;71.35
61761;BME280;47664;51.660;-0.100;2022-11-03T01:47:53;99921.16;;;11.33;73.15
61761;BME280;47664;51.660;-0.100;2022-11-03T01:50:30;99913.81;;;10.98;72.86
61761;BME280;47664;51.660;-0.100;2022-11-03T01:53:07;99905.09;;;11.26;71.55
61761;BME280;47664;51.660;-0.100;2022-11-03T01:55:44;99902.19;;;11.48;71.70
61761;BME280;47664;51.660;-0.100;2022-11-03T01:58:27;99905.78;;;10.82;72.54
61761;BME280;47664;51.660;-0.100;2022-11-03T02:01:06;99895.62;;;11.22;73.11
61761;BME280;47664;51.660;-0.100;2022-11-03T02:03:47;99884.33;;;11.37;72.69
61761;BME280;47664;51.660;-0.100;2022-11-03T02:06:27;99879.63;;;11.06;72.74
61761;BME280;47664;51.660;-0.100;2022-11-03T02:09:07;99884.14;;;11.01;72.12
61761;BME280;47664;51.660;-0.100;2022-11-03T02:11:46;99874.34;;;11.22;71.55
61761;BME280;47664;51.660;-0.100;2022-11-03T02:14:22;99859.39;;;11.45;71.10
61761;BME280;47664;51.660;-0.100;2022-11-03T02:17:05;99850.78;;;11.89;70.16
61761;BME280;47664;51.660;-0.100;2022-11-03T02:19:46;99838.54;;;12.03;69.65
61761;BME280;47664;51.660;-0.100;2022-11-03T02:22:39;99825.35;;;12.20;69.70
61761;BME280;47664;51.660;-0.100;2022-11-03T02:25:55;99807.81;;;12.21;69.49
61761;BME280;47664;51.660;-0.100;2022-11-03T02:28:34;99814.88;;;12.37;69.01
61761;BME280;47664;51.660;-0.100;2022-11-03T02:31:14;99819.39;;;12.14;69.55
61761;BME280;47664;51.660;-0.100;2022-11-03T02:33:58;99821.15;;;12.13;69.59
61761;BME280;47664;51.660;-0.100;2022-11-03T02:36:42;99807.08;;;12.26;69.02
61761;BME280;47664;51.660;-0.100;2022-11-03T02:39:27;99804.95;;;12.30;68.75
61761;BME280;47664;51.660;-0.100;2022-11-03T02:42:09;99797.42;;;12.16;68.28
61761;BME280;47664;51.660;-0.100;2022-11-03T02:44:48;99791.93;;;12.56;67.98
61761;BME280;47664;51.660;-0.100;2022-11-03T02:47:27;99787.59;;;12.57;67.16
61761;BME280;47664;51.660;-0.100;2022-11-03T02:50:09;99785.38;;;12.48;67.47
61761;BME280;47664;51.660;-0.100;2022-11-03T02:52:47;99783.63;;;12.77;67.65
61761;BME280;47664;51.660;-0.100;2022-11-03T02:55:33;99774.63;;;12.02;68.30
61761;BME280;47664;51.660;-0.100;2022-11-03T02:58:15;99772.35;;;12.35;68.05
61761;BME280;47664;51.660;-0.100;2022-11-03T03:00:58;99761.78;;;12.35;68.54
61761;BME280;47664;51.660;-0.100;2022-11-03T03:03:40;99763.12;;;12.46;68.32
61761;BME280;47664;51.660;-0.100;2022-11-03T03:06:24;99756.46;;;12.64;68.88
61761;BME280;47664;51.660;-0.100;2022-11-03T03:09:05;99756.99;;;12.26;68.32
61761;BME280;47664;51.660;-0.100;2022-11-03T03:11:45;99748.19;;;12.19;68.65
61761;BME280;47664;51.660;-0.100;2022-11-03T03:14:26;99738.34;;;12.36;68.90
61761;BME280;47664;51.660;-0.100;2022-11-03T03:17:06;99726.46;;;12.01;69.50
61761;BME280;47664;51.660;-0.100;2022-11-03T03:19:51;99730.60;;;12.29;69.82
61761;BME280;47664;51.660;-0.100;2022-11-03T03:22:34;99727.08;;;11.97;70.31
61761;BME280;47664;51.660;-0.100;2022-11-03T03:25:16;99717.11;;;11.99;70.53
61761;BME280;47664;51.660;-0.100;2022-11-03T03:27:59;99701.57;;;11.66;71.08
61761;BME280;47664;51.660;-0.100;2022-11-03T03:30:40;99692.52;;;12.33;70.44
61761;BME280;47664;51.660;-0.100;2022-11-03T03:33:19;99668.35;;;12.04;70.85
61761;BME280;47664;51.660;-0.100;2022-11-03T03:35:57;99668.91;;;11.74;70.81
61761;BME280;47664;51.660;-0.100;2022-11-03T03:38:39;99673.47;;;11.59;71.47
61761;BME280;47664;51.660;-0.100;2022-11-03T03:41:19;99669.23;;;11.76;71.46
61761;BME280;47664;51.660;-0.100;2022-11-03T03:44:00;99652.08;;;11.96;72.12
61761;BME280;47664;51.660;-0.100;2022-11-03T03:46:41;99656.67;;;11.46;72.04
61761;BME280;47664;51.660;-0.100;2022-11-03T03:49:20;99647.96;;;11.96;71.17
61761;BME280;47664;51.660;-0.100;2022-11-03T03:51:57;99655.85;;;11.66;70.87
61761;BME280;47664;51.660;-0.100;2022-11-03T03:54:36;99648.41;;;12.13;70.99
61761;BME280;47664;51.660;-0.100;2022-11-03T03:57:16;99636.47;;;12.38;69.51
61761;BME280;47664;51.660;-0.100;2022-11-03T03:59:55;99627.58;;;12.37;69.70
61761;BME280;47664;51.660;-0.100;2022-11-03T04:02:32;99618.74;;;12.10;69.91
61761;BME280;47664;51.660;-0.100;2022-11-03T04:05:10;99613.04;;;11.99;70.16
61761;BME280;47664;51.660;-0.100;2022-11-03T04:07:47;99607.48;;;12.23;70.13
61761;BME280;47664;51.660;-0.100;2022-11-03T04:10:26;99598.23;;;12.36;69.47
61761;BME280;47664;51.660;-0.100;2022-11-03T04:13:03;99589.62;;;12.56;69.42
61761;BME280;47664;51.660;-0.100;2022-11-03T04:15:40;99581.25;;;12.25;69.39
61761;BME280;47664;51.660;-0.100;2022-11-03T04:18:18;99584.38;;;12.36;69.40
61761;BME280;47664;51.660;-0.100;2022-11-03T04:20:55;99581.79;;;11.88;71.16
61761;BME280;47664;51.660;-0.100;2022-11-03T04:23:33;99585.64;;;11.37;73.62
61761;BME280;47664;51.660;-0.100;2022-11-03T04:26:12;99571.31;;;11.34;74.83
61761;BME280;47664;51.660;-0.100;2022-11-03T04:28:50;99555.00;;;11.76;73.02
61761;BME280;47664;51.660;-0.100;2022-11-03T04:31:30;99576.19;;;11.08;74.66
61761;BME280;47664;51.660;-0.100;2022-11-03T04:34:14;99566.98;;;11.26;73.62
61761;BME280;47664;51.660;-0.100;2022-11-03T04:36:51;99556.95;;;11.90;72.31
61761;BME280;47664;51.660;-0.100;2022-11-03T04:39:28;99546.60;;;12.31;70.97
61761;BME280;47664;51.660;-0.100;2022-11-03T04:42:10;99538.51;;;12.47;70.05
61761;BME280;47664;51.660;-0.100;2022-11-03T04:44:50;99550.07;;;11.92;70.10
61761;BME280;47664;51.660;-0.100;2022-11-03T04:47:30;99539.07;;;12.07;69.97
61761;BME280;47664;51.660;-0.100;2022-11-03T04:50:12;99544.47;;;12.48;69.56
61761;BME280;47664;51.660;-0.100;2022-11-03T04:52:53;99546.98;;;12.48;69.14
61761;BME280;47664;51.660;-0.100;2022-11-03T04:55:31;99536.08;;;12.60;68.34
61761;BME280;47664;51.660;-0.100;2022-11-03T04:58:16;99531.38;;;12.28;68.57
61761;BME280;47664;51.660;-0.100;2022-11-03T05:00:56;99525.49;;;12.15;70.16
61761;BME280;47664;51.660;-0.100;2022-11-03T05:03:36;99519.26;;;11.93;70.49
61761;BME280;47664;51.660;-0.100;2022-11-03T05:06:18;99520.59;;;11.87;70.78
61761;BME280;47664;51.660;-0.100;2022-11-03T05:08:58;99515.88;;;11.82;71.47
61761;BME280;47664;51.660;-0.100;2022-11-03T05:11:39;99519.93;;;11.80;70.39
61761;BME280;47664;51.660;-0.100;2022-11-03T05:14:20;99518.08;;;12.40;70.28
61761;BME280;47664;51.660;-0.100;2022-11-03T05:16:59;99504.84;;;12.42;69.28
61761;BME280;47664;51.660;-0.100;2022-11-03T05:19:41;99492.58;;;12.29;68.96
61761;BME280;47664;51.660;-0.100;2022-11-03T05:22:20;99481.70;;;12.52;69.41
61761;BME280;47664;51.660;-0.100;2022-11-03T05:25:03;99484.50;;;12.42;69.48
61761;BME280;47664;51.660;-0.100;2022-11-03T05:27:46;99484.33;;;12.44;69.26
61761;BME280;47664;51.660;-0.100;2022-11-03T05:30:24;99470.11;;;11.67;70.46
61761;BME280;47664;51.660;-0.100;2022-11-03T05:33:10;99447.81;;;12.28;71.03
61761;BME280;47664;51.660;-0.100;2022-11-03T05:35:48;99472.30;;;11.96;71.26
61761;BME280;47664;51.660;-0.100;2022-11-03T05:38:27;99481.00;;;12.06;71.09
61761;BME280;47664;51.660;-0.100;2022-11-03T05:41:07;99468.61;;;12.11;70.61
61761;BME280;47664;51.660;-0.100;2022-11-03T05:43:54;99462.36;;;11.69;71.64
61761;BME280;47664;51.660;-0.100;2022-11-03T05:46:33;99458.15;;;11.53;71.79
61761;BME280;47664;51.660;-0.100;2022-11-03T05:49:11;99442.29;;;11.63;72.42
61761;BME280;47664;51.660;-0.100;2022-11-03T05:51:48;99440.41;;;11.64;71.64
61761;BME280;47664;51.660;-0.100;2022-11-03T05:54:28;99434.59;;;11.35;72.15
61761;BME280;47664;51.660;-0.100;2022-11-03T05:57:12;99435.78;;;11.46;72.27
61761;BME280;47664;51.660;-0.100;2022-11-03T05:59:51;99420.74;;;12.08;72.36
61761;BME280;47664;51.660;-0.100;2022-11-03T06:02:36;99406.84;;;11.60;71.35
61761;BME280;47664;51.660;-0.100;2022-11-03T06:05:20;99411.18;;;12.28;71.44
61761;BME280;47664;51.660;-0.100;2022-11-03T06:07:59;99421.50;;;12.27;70.65
61761;BME280;47664;51.660;-0.100;2022-11-03T06:10:40;99416.94;;;12.51;69.90
61761;BME280;47664;51.660;-0.100;2022-11-03T06:13:21;99412.55;;;12.39;69.83
61761;BME280;47664;51.660;-0.100;2022-11-03T06:16:02;99404.57;;;12.01;70.00
61761;BME280;47664;51.660;-0.100;2022-11-03T06:18:41;99405.44;;;11.99;69.62
61761;BME280;47664;51.660;-0.100;2022-11-03T06:21:23;99406.28;;;12.05;70.34
61761;BME280;47664;51.660;-0.100;2022-11-03T06:24:03;99406.74;;;11.68;71.38
61761;BME280;47664;51.660;-0.100;2022-11-03T06:26:41;99408.02;;;11.45;72.61
61761;BME280;47664;51.660;-0.100;2022-11-03T06:29:21;99409.97;;;11.20;73.12
61761;BME280;47664;51.660;-0.100;2022-11-03T06:31:59;99413.03;;;10.77;74.19
61761;BME280;47664;51.660;-0.100;2022-11-03T06:34:42;99416.59;;;11.14;73.61
61761;BME280;47664;51.660;-0.100;2022-11-03T06:37:24;99421.90;;;10.96;73.79
61761;BME280;47664;51.660;-0.100;2022-11-03T06:43:20;99422.77;;;10.57;74.85
61761;BME280;47664;51.660;-0.100;2022-11-03T06:46:00;99421.85;;;10.32;75.80
61761;BME280;47664;51.660;-0.100;2022-11-03T06:48:38;99423.26;;;10.24;76.08
61761;BME280;47664;51.660;-0.100;2022-11-03T06:51:19;99422.41;;;9.83;75.99
61761;BME280;47664;51.660;-0.100;2022-11-03T06:53:58;99422.18;;;9.69;76.55
61761;BME280;47664;51.660;-0.100;2022-11-03T06:56:40;99406.30;;;9.52;76.64
61761;BME280;47664;51.660;-0.100;2022-11-03T06:59:18;99413.12;;;9.60;76.54
61761;BME280;47664;51.660;-0.100;2022-11-03T07:01:54;99416.62;;;9.49;76.78
61761;BME280;47664;51.660;-0.100;2022-11-03T07:04:27;99423.18;;;9.59;75.50
61761;BME280;47664;51.660;-0.100;2022-11-03T07:06:59;99425.64;;;9.67;74.69
61761;BME280;47664;51.660;-0.100;2022-11-03T07:09:33;99420.76;;;9.80;74.00
61761;BME280;47664;51.660;-0.100;2022-11-03T07:12:05;99416.02;;;10.12;73.69
61761;BME280;47664;51.660;-0.100;2022-11-03T07:14:44;99416.81;;;10.48;71.94
61761;BME280;47664;51.660;-0.100;2022-11-03T07:17:15;99420.87;;;10.01;71.79
61761;BME280;47664;51.660;-0.100;2022-11-03T07:19:49;99421.04;;;10.58;71.42
61761;BME280;47664;51.660;-0.100;2022-11-03T07:22:24;99422.86;;;10.69;71.32
61761;BME280;47664;51.660;-0.100;2022-11-03T07:24:58;99417.29;;;10.49;70.41
61761;BME280;47664;51.660;-0.100;2022-11-03T07:27:34;99404.46;;;10.84;70.46
61761;BME280;47664;51.660;-0.100;2022-11-03T07:30:14;99393.09;;;10.83;69.81
61761;BME280;47664;51.660;-0.100;2022-11-03T07:32:49;99393.98;;;10.55;69.07
61761;BME280;47664;51.660;-0.100;2022-11-03T07:35:30;99410.27;;;11.38;68.70
61761;BME280;47664;51.660;-0.100;2022-11-03T07:38:08;99423.71;;;11.04;68.53
61761;BME280;47664;51.660;-0.100;2022-11-03T07:40:42;99434.00;;;11.10;68.92
61761;BME280;47664;51.660;-0.100;2022-11-03T07:43:14;99424.67;;;11.07;68.29
61761;BME280;47664;51.660;-0.100;2022-11-03T07:45:47;99425.05;;;11.32;67.95
61761;BME280;47664;51.660;-0.100;2022-11-03T07:48:20;99425.44;;;11.59;67.36
61761;BME280;47664;51.660;-0.100;2022-11-03T07:50:54;99422.88;;;11.68;66.64
61761;BME280;47664;51.660;-0.100;2022-11-03T07:53:27;99417.31;;;11.83;65.89
61761;BME280;47664;51.660;-0.100;2022-11-03T07:56:12;99417.29;;;11.82;66.14
61761;BME280;47664;51.660;-0.100;2022-11-03T07:58:46;99418.90;;;11.74;66.22
61761;BME280;47664;51.660;-0.100;2022-11-03T08:01:22;99419.78;;;11.64;65.90
61761;BME280;47664;51.660;-0.100;2022-11-03T08:03:57;99423.43;;;11.74;65.14
61761;BME280;47664;51.660;-0.100;2022-11-03T08:06:30;99423.94;;;11.63;66.59
61761;BME280;47664;51.660;-0.100;2022-11-03T08:09:03;99419.94;;;12.02;66.57
61761;BME280;47664;51.660;-0.100;2022-11-03T08:11:35;99419.85;;;11.96;66.29
61761;BME280;47664;51.660;-0.100;2022-11-03T08:14:07;99412.32;;;11.81;65.43
61761;BME280;47664;51.660;-0.100;2022-11-03T08:16:39;99410.05;;;12.02;66.22
61761;BME280;47664;51.660;-0.100;2022-11-03T08:19:11;99414.56;;;11.82;66.20
61761;BME280;47664;51.660;-0.100;2022-11-03T08:21:44;99421.59;;;12.08;65.57
61761;BME280;47664;51.660;-0.100;2022-11-03T08:24:16;99431.30;;;11.87;65.90
61761;BME280;47664;51.660;-0.100;2022-11-03T08:26:48;99431.34;;;12.02;66.32
61761;BME280;47664;51.660;-0.100;2022-11-03T08:29:20;99429.39;;;12.06;65.39
61761;BME280;47664;51.660;-0.100;2022-11-03T08:31:52;99426.87;;;12.29;65.21
61761;BME280;47664;51.660;-0.100;2022-11-03T08:34:24;99428.18;;;11.72;65.69
61761;BME280;47664;51.660;-0.100;2022-11-03T08:36:57;99431.51;;;11.88;65.91
61761;BME280;47664;51.660;-0.100;2022-11-03T08:39:28;99440.18;;;11.63;66.58
61761;BME280;47664;51.660;-0.100;2022-11-03T08:42:01;99445.53;;;12.02;66.38
61761;BME280;47664;51.660;-0.100;2022-11-03T08:44:33;99448.16;;;11.98;65.82
61761;BME280;47664;51.660;-0.100;2022-11-03T08:47:04;99446.89;;;11.84;65.95
61761;BME280;47664;51.660;-0.100;2022-11-03T08:49:37;99438.62;;;11.87;66.81
61761;BME280;47664;51.660;-0.100;2022-11-03T08:52:09;99431.78;;;11.73;67.05
61761;BME280;47664;51.660;-0.100;2022-11-03T08:54:41;99414.26;;;11.34;67.68
61761;BME280;47664;51.660;-0.100;2022-11-03T08:57:14;99412.04;;;10.96;68.16
61761;BME280;47664;51.660;-0.100;2022-11-03T08:59:46;99417.40;;;11.35;68.31
61761;BME280;47664;51.660;-0.100;2022-11-03T09:02:19;99413.66;;;10.47;67.85
61761;BME280;47664;51.660;-0.100;2022-11-03T09:04:51;99422.96;;;10.97;69.11
61761;BME280;47664;51.660;-0.100;2022-11-03T09:07:23;99417.32;;;11.15;68.97
61761;BME280;47664;51.660;-0.100;2022-11-03T09:09:55;99401.03;;;10.38;70.82
61761;BME280;47664;51.660;-0.100;2022-11-03T09:12:27;99401.94;;;10.55;70.89
61761;BME280;47664;51.660;-0.100;2022-11-03T09:14:59;99400.57;;;10.54;70.43
61761;BME280;47664;51.660;-0.100;2022-11-03T09:17:31;99400.68;;;10.45;70.60
61761;BME280;47664;51.660;-0.100;2022-11-03T09:20:04;99395.21;;;10.73;69.64
61761;BME280;47664;51.660;-0.100;2022-11-03T09:22:37;99394.52;;;11.01;69.15
61761;BME280;47664;51.660;-0.100;2022-11-03T09:25:10;99393.11;;;11.74;68.43
61761;BME280;47664;51.660;-0.100;2022-11-03T09:27:42;99396.77;;;11.47;67.95
61761;BME280;47664;51.660;-0.100;2022-11-03T09:30:15;99396.88;;;11.63;67.00
61761;BME280;47664;51.660;-0.100;2022-11-03T09:32:48;99395.88;;;11.74;66.66
61761;BME280;47664;51.660;-0.100;2022-11-03T09:35:19;99392.04;;;11.58;66.24
61761;BME280;47664;51.660;-0.100;2022-11-03T09:37:52;99389.03;;;11.82;65.62
61761;BME280;47664;51.660;-0.100;2022-11-03T09:40:24;99386.42;;;11.99;65.73
61761;BME280;47664;51.660;-0.100;2022-11-03T09:42:56;99382.05;;;12.16;65.47
61761;BME280;47664;51.660;-0.100;2022-11-03T09:45:28;99387.93;;;12.21;65.64
61761;BME280;47664;51.660;-0.100;2022-11-03T09:48:00;99389.92;;;11.92;65.81
61761;BME280;47664;51.660;-0.100;2022-11-03T09:50:32;99391.98;;;12.00;65.51
61761;BME280;47664;51.660;-0.100;2022-11-03T09:53:05;99390.92;;;11.47;66.52
61761;BME280;47664;51.660;-0.100;2022-11-03T09:55:37;99395.14;;;11.63;66.26
61761;BME280;47664;51.660;-0.100;2022-11-03T09:58:11;99402.27;;;11.91;66.61
61761;BME280;47664;51.660;-0.100;2022-11-03T10:00:45;99401.26;;;12.09;66.21
61761;BME280;47664;51.660;-0.100;2022-11-03T10:03:18;99399.94;;;11.77;65.59
61761;BME280;47664;51.660;-0.100;2022-11-03T10:05:50;99396.97;;;12.30;65.41
61761;BME280;47664;51.660;-0.100;2022-11-03T10:08:22;99400.18;;;12.11;65.21
61761;BME280;47664;51.660;-0.100;2022-11-03T10:10:55;99405.53;;;12.36;65.70
61761;BME280;47664;51.660;-0.100;2022-11-03T10:13:28;99399.98;;;12.06;64.73
61761;BME280;47664;51.660;-0.100;2022-11-03T10:16:01;99400.08;;;12.45;64.96
61761;BME280;47664;51.660;-0.100;2022-11-03T10:18:35;99406.53;;;12.31;65.43
61761;BME280;47664;51.660;-0.100;2022-11-03T10:21:12;99401.54;;;12.18;64.86
61761;BME280;47664;51.660;-0.100;2022-11-03T10:23:45;99397.54;;;12.78;64.75
61761;BME280;47664;51.660;-0.100;2022-11-03T10:26:18;99394.10;;;12.08;65.39
61761;BME280;47664;51.660;-0.100;2022-11-03T10:29:05;99397.52;;;12.40;65.15
61761;BME280;47664;51.660;-0.100;2022-11-03T10:31:40;99394.69;;;12.50;64.51
61761;BME280;47664;51.660;-0.100;2022-11-03T10:34:23;99382.05;;;12.70;64.63
61761;BME280;47664;51.660;-0.100;2022-11-03T10:37:10;99381.20;;;12.54;64.22
61761;BME280;47664;51.660;-0.100;2022-11-03T10:39:42;99384.66;;;12.49;64.91
61761;BME280;47664;51.660;-0.100;2022-11-03T10:42:17;99383.65;;;12.88;64.70
61761;BME280;47664;51.660;-0.100;2022-11-03T10:44:51;99381.81;;;12.55;63.89
61761;BME280;47664;51.660;-0.100;2022-11-03T10:47:31;99380.50;;;12.27;64.45
61761;BME280;47664;51.660;-0.100;2022-11-03T10:50:16;99374.47;;;12.14;65.19
61761;BME280;47664;51.660;-0.100;2022-11-03T10:52:49;99375.33;;;12.31;65.46
61761;BME280;47664;51.660;-0.100;2022-11-03T10:55:23;99372.40;;;12.39;65.43
61761;BME280;47664;51.660;-0.100;2022-11-03T10:57:56;99372.19;;;12.54;65.90
61761;BME280;47664;51.660;-0.100;2022-11-03T11:00:29;99370.99;;;12.45;65.29
61761;BME280;47664;51.660;-0.100;2022-11-03T11:03:04;99367.52;;;12.42;65.72
61761;BME280;47664;51.660;-0.100;2022-11-03T11:05:38;99361.01;;;12.02;65.78
61761;BME280;47664;51.660;-0.100;2022-11-03T11:08:17;99358.01;;;12.22;65.18
61761;BME280;47664;51.660;-0.100;2022-11-03T11:10:52;99352.83;;;12.41;65.80
61761;BME280;47664;51.660;-0.100;2022-11-03T11:13:26;99350.27;;;12.05;65.51
61761;BME280;47664;51.660;-0.100;2022-11-03T11:15:59;99346.05;;;12.27;65.42
61761;BME280;47664;51.660;-0.100;2022-11-03T11:19:00;99338.79;;;11.98;65.35
61761;BME280;47664;51.660;-0.100;2022-11-03T11:22:01;99331.75;;;11.99;64.49
61761;BME280;47664;51.660;-0.100;2022-11-03T11:25:01;99323.01;;;12.00;65.40
61761;BME280;47664;51.660;-0.100;2022-11-03T11:28:10;99318.28;;;12.06;65.32
61761;BME280;47664;51.660;-0.100;2022-11-03T11:30:56;99314.87;;;12.11;64.85
61761;BME280;47664;51.660;-0.100;2022-11-03T11:33:31;99311.51;;;11.94;64.36
61761;BME280;47664;51.660;-0.100;2022-11-03T11:36:05;99312.17;;;11.84;64.77
61761;BME280;47664;51.660;-0.100;2022-11-03T11:38:54;99314.08;;;11.92;65.69
61761;BME280;47664;51.660;-0.100;2022-11-03T11:42:04;99309.75;;;12.12;65.66
61761;BME280;47664;51.660;-0.100;2022-11-03T11:44:48;99299.12;;;12.39;64.78
61761;BME280;47664;51.660;-0.100;2022-11-03T11:47:49;99291.79;;;12.32;64.13
61761;BME280;47664;51.660;-0.100;2022-11-03T11:50:26;99283.16;;;12.64;63.85
61761;BME280;47664;51.660;-0.100;2022-11-03T11:52:58;99288.00;;;12.54;62.95
61761;BME280;47664;51.660;-0.100;2022-11-03T11:55:32;99285.31;;;12.40;63.28
61761;BME280;47664;51.660;-0.100;2022-11-03T11:58:11;99275.58;;;12.62;63.80
61761;BME280;47664;51.660;-0.100;2022-11-03T12:00:52;99267.86;;;12.58;63.82
61761;BME280;47664;51.660;-0.100;2022-11-03T12:03:31;99268.75;;;12.26;63.56
61761;BME280;47664;51.660;-0.100;2022-11-03T12:06:04;99260.59;;;12.55;64.28
61761;BME280;47664;51.660;-0.100;2022-11-03T12:08:36;99255.99;;;12.49;64.21
61761;BME280;47664;51.660;-0.100;2022-11-03T12:11:10;99257.46;;;12.39;63.97
61761;BME280;47664;51.660;-0.100;2022-11-03T12:13:47;99270.34;;;12.05;63.88
61761;BME280;47664;51.660;-0.100;2022-11-03T12:16:32;99275.71;;;11.86;65.17
61761;BME280;47664;51.660;-0.100;2022-11-03T12:19:35;99280.11;;;12.03;65.21
61761;BME280;47664;51.660;-0.100;2022-11-03T12:22:10;99273.10;;;12.20;64.85
61761;BME280;47664;51.660;-0.100;2022-11-03T12:24:45;99278.30;;;11.72;64.86
61761;BME280;47664;51.660;-0.100;2022-11-03T12:27:38;99284.07;;;11.26;65.60
61761;BME280;47664;51.660;-0.100;2022-11-03T12:30:12;99280.19;;;11.85;66.20
61761;BME280;47664;51.660;-0.100;2022-11-03T12:32:45;99271.00;;;11.80;65.91
61761;BME280;47664;51.660;-0.100;2022-11-03T12:35:18;99266.23;;;12.01;65.50
61761;BME280;47664;51.660;-0.100;2022-11-03T12:37:50;99257.75;;;11.96;64.35
61761;BME280;47664;51.660;-0.100;2022-11-03T12:40:22;99253.05;;;12.15;63.87
61761;BME280;47664;51.660;-0.100;2022-11-03T12:42:55;99261.62;;;12.13;64.37
61761;BME280;47664;51.660;-0.100;2022-11-03T12:45:26;99267.76;;;12.23;63.73
61761;BME280;47664;51.660;-0.100;2022-11-03T12:47:59;99273.70;;;12.06;64.19
61761;BME280;47664;51.660;-0.100;2022-11-03T12:50:31;99267.99;;;12.07;64.22
61761;BME280;47664;51.660;-0.100;2022-11-03T12:53:02;99268.24;;;11.52;63.93
61761;BME280;47664;51.660;-0.100;2022-11-03T12:55:34;99267.42;;;11.80;65.32
61761;BME280;47664;51.660;-0.100;2022-11-03T12:58:07;99266.90;;;11.32;66.87
61761;BME280;47664;51.660;-0.100;2022-11-03T13:00:39;99269.37;;;11.05;67.05
61761;BME280;47664;51.660;-0.100;2022-11-03T13:03:11;99263.42;;;11.30;67.40
61761;BME280;47664;51.660;-0.100;2022-11-03T13:05:44;99257.15;;;11.21;67.40
61761;BME280;47664;51.660;-0.100;2022-11-03T13:08:16;99258.11;;;11.00;67.00
61761;BME280;47664;51.660;-0.100;2022-11-03T13:10:48;99254.96;;;11.45;67.11
61761;BME280;47664;51.660;-0.100;2022-11-03T13:13:20;99260.82;;;11.45;66.53
61761;BME280;47664;51.660;-0.100;2022-11-03T13:15:52;99276.88;;;11.06;66.92
61761;BME280;47664;51.660;-0.100;2022-11-03T13:18:24;99282.99;;;10.70;65.77
61761;BME280;47664;51.660;-0.100;2022-11-03T13:20:56;99279.97;;;10.90;67.42
61761;BME280;47664;51.660;-0.100;2022-11-03T13:23:28;99275.82;;;11.06;67.08
61761;BME280;47664;51.660;-0.100;2022-11-03T13:26:00;99280.60;;;10.84;66.96
61761;BME280;47664;51.660;-0.100;2022-11-03T13:28:32;99287.89;;;11.08;66.96
61761;BME280;47664;51.660;-0.100;2022-11-03T13:31:05;99288.95;;;10.83;67.54
61761;BME280;47664;51.660;-0.100;2022-11-03T13:33:36;99284.55;;;11.21;67.28
61761;BME280;47664;51.660;-0.100;2022-11-03T13:36:09;99283.83;;;10.96;66.48
61761;BME280;47664;51.660;-0.100;2022-11-03T13:38:41;99284.80;;;11.57;65.98
61761;BME280;47664;51.660;-0.100;2022-11-03T13:41:14;99280.16;;;11.27;65.99
61761;BME280;47664;51.660;-0.100;2022-11-03T13:43:46;99271.56;;;11.14;65.04
61761;BME280;47664;51.660;-0.100;2022-11-03T13:46:19;99262.67;;;11.44;64.82
61761;BME280;47664;51.660;-0.100;2022-11-03T13:48:52;99250.57;;;11.24;64.93